METAR Data
IDs: Format: Raw Decoded Include TAF

Data at: 1329 UTC 14 Dec 2019

PAAK 132252Z AUTO 28008KT 5SM -RA BR BKN011 OVC034 03/02 A2889 RMK AO2 PNO $
PAAK 132243Z AUTO 29007KT 6SM -RA BR SCT011 BKN030 OVC037 03/02 A2889 RMK AO2 PNO $
PAAK 132214Z AUTO 27004KT 8SM -RA BKN028 OVC039 03/02 A2890 RMK AO2 PNO $
PAAK 132156Z AUTO 00000KT 10SM -RA FEW030 BKN039 OVC050 03/02 A2891 RMK AO2 SLP792 T00330017 PNO $
PAAK 132056Z AUTO 25008KT 6SM -RA BR SCT033 BKN043 OVC050 04/02 A2893 RMK AO2 RAB36 SLP799 6//// T00390022 58010 PNO $
PAAK 131956Z AUTO 00000KT 10SM FEW027 BKN045 OVC090 03/02 A2896 RMK AO2 SLP807 T00330022 PNO $
PAAK 131951Z AUTO 00000KT 10SM FEW027 BKN045 OVC090 03/02 A2896 RMK AO2 PNO $
PAAK 131922Z AUTO 24009KT 9SM SCT019 BKN025 OVC035 04/03 A2896 RMK AO2 PNO $
PAAK 131904Z AUTO 20008KT 10SM FEW004 BKN030 OVC035 04/03 A2896 RMK AO2 PNO $
PAAK 131838Z AUTO 00000KT 5SM -RA BR OVC004 03/03 A2897 RMK AO2 CIG 004V008 PNO $
PAAK 131803Z AUTO 19003KT 3SM -RA BR OVC007 03/03 A2898 RMK AO2 CIG 006V012 PNO $
PAAK 131756Z AUTO 11006KT 1 3/4SM -RA BR OVC009 04/03 A2898 RMK AO2 CIG 006V012 SLP815 6//// T00390028 10039 20011 58024 PNO $
PAAK 131744Z AUTO 10009G16KT 2SM -RA BR OVC009 04/03 A2898 RMK AO2 PNO $
PAAK 131433Z AUTO 08018G23KT 1 1/2SM RA BR BKN009 OVC014 02/01 A2911 RMK AO2 FZRANO PNO $
PAAK 131356Z AUTO 08018KT 2SM -RA BR OVC007 02/01 A2913 RMK AO2 PRESFR SLP866 T00170006 FZRANO PNO $
PAAK 131338Z AUTO 09017KT 1 3/4SM RA BR OVC007 01/01 A2916 RMK AO2 FZRANO PNO $
PAAK 131324Z AUTO 09013KT 1 3/4SM -RA BR OVC005 01/00 A2917 RMK AO2 CIG 004V009 FZRANO PNO $
PAAK 131315Z AUTO 09017KT 2SM RA BR OVC005 01/00 A2917 RMK AO2 PRESFR FZRANO PNO $
PAAK 131307Z AUTO 09017KT 3SM -RA BR OVC005 01/01 A2918 RMK AO2 CIG 004V009 PRESFR FZRANO PNO $
PAAK 131256Z AUTO 09016G21KT 3SM -RA BR OVC007 01/01 A2919 RMK AO2 RAB23UPB32E38SNE23 CIG 003V011 SLP887 T00110006 FZRANO PNO $
PAAK 131252Z AUTO 09018G21KT 2 1/2SM -RA BR OVC007 01/01 A2920 RMK AO2 RAB23UPB32E38SNE23 CIG 003V011 FZRANO PNO $
PAAK 131206Z AUTO 10018KT 2 1/2SM -SN BR OVC007 01/00 A2924 RMK AO2 CIG 004V010 FZRANO PNO $
PAAK 131156Z AUTO 10016KT 3SM -SN BR BKN009 OVC012 01/00 A2925 RMK AO2 CIG 005V010 SLP905 6//// 7//// T00110000 10028 21039 58042 FZRANO PNO $
PAAK 131112Z AUTO 11015KT 3SM -SN BR FEW009 BKN017 OVC025 01/M01 A2928 RMK AO2 FZRANO PNO $
PAAK 131056Z AUTO 12018KT 4SM -SN BR SCT015 OVC026 02/M01 A2929 RMK AO2 RAB10E33UPB33E36SNB36 SLP921 T00171006 FZRANO PNO $
PAAK 130856Z AUTO 00000KT 10SM OVC044 M01/M03 A2937 RMK AO2 PRESFR SLP946 6//// T10061033 400171039 58039 FZRANO PNO $
PAAK 130756Z AUTO 00000KT 10SM FEW048 M01/M04 A2942 RMK AO2 SLP963 T10111044 FZRANO PNO $
PAAK 130656Z AUTO 00000KT 10SM BKN039 OVC046 M02/M05 A2945 RMK AO2 SLP974 T10171050 FZRANO PNO $
PAAK 130556Z AUTO 00000KT 10SM FEW046 M04/M07 A2949 RMK AO2 SLP986 6//// T10391067 10017 21039 58020 FZRANO PNO $
PAAK 130456Z AUTO 36003KT 10SM CLR M03/M06 A2951 RMK AO2 SLP996 T10281061 FZRANO PNO $
PAAK 130356Z AUTO VRB03KT 10SM CLR M02/M06 A2953 RMK AO2 UPB0258E22SNB05E19 SLP000 T10221056 FZRANO PNO $
PAAK 130256Z AUTO 26007KT 10SM FEW033 BKN055 M01/M04 A2955 RMK AO2 SLP006 6//// T10061044 58016 FZRANO PNO $
PAAK 130156Z AUTO 24010KT 10SM CLR 00/M03 A2956 RMK AO2 RAE04UPB04E07 SLP012 T00001033 FZRANO PNO $